METAR Data
IDs: Format: Raw Decoded Include TAF

Data at: 2147 UTC 10 May 2021

KASE 102053Z 15016KT 10SM FEW029 BKN037 OVC080 04/02 A3003 RMK AO2 UPB19E21RAB21E22SNE19 SLP114 P0002 60006 T00390017 58002
KASE 102049Z 16014KT 10SM FEW028 BKN037 OVC080 04/02 A3004 RMK AO2 UPB19E21RAB21E22SNE19 P0002
KASE 102015Z 11004KT 6SM -SN BR FEW014 BKN028 02/01 A3003 RMK AO2 P0002 T00220006
KASE 102002Z VRB03G18KT 2SM -SN BR BKN008 OVC014 02/00 A3003 RMK AO2 P0001 T00220000
KASE 101953Z 03007G16KT 3SM -SN BR SCT008 OVC014 03/01 A3004 RMK AO2 RAE26SNB26 SLP125 P0003 T00280006
KASE 101921Z 01011KT 3SM -RA BR FEW007 BKN020 OVC026 03/01 A3002 RMK AO2 P0001 T00330011
KASE 101904Z 33006KT 3SM -RA BR BKN009 OVC019 03/01 A3003 RMK AO2 P0001 T00330011
KASE 101853Z 33005KT 3SM -RA BR SCT004 OVC010 03/01 A3004 RMK AO2 RAB25SNE25 SLP121 P0001 T00330011
KASE 101804Z 32003KT 3SM -SN BR SCT004 OVC010 02/01 A3004 RMK AO2 P0001 T00170006
KASE 101753Z COR 35004KT 3SM -SN BR SCT004 OVC010 02/01 A3005 RMK AO2 VIS 1 1/4V3 SLP127 P0004 60010 T00170006 10033 21006 50004
KASE 101750Z 35004KT 2 1/2SM -SN BR SCT004 OVC010 02/01 A3005 RMK AO2 VIS 1 1/4V4 P0004
KASE 101700Z 34003KT 1SM -SN BR SCT002 OVC010 02/01 A3004 RMK AO2 P0001 T00170006
KASE 101653Z 35004KT 3SM -SN BR BKN006 OVC016 02/01 A3004 RMK AO2 RAE07SNB07 SLP125 P0004 T00170006
KASE 101558Z COR 02003KT 3SM -RA BKN006 OVC017 03/01 A3003 RMK AO2 P0000 T00280006
KASE 101553Z 00000KT 6SM -RA BR SCT008 OVC010 02/01 A3003 RMK AO2 RAB05SNE05 SLP114 P0002 T00220006
KASE 101507Z 36003KT 6SM -RA BR SCT008 OVC010 02/00 A3003 RMK AO2 RAB05SNE05 P0001 T00220000
KASE 101502Z 36003KT 6SM -SN BR SCT010 BKN018 OVC026 03/01 A3003 RMK AO2 P0001 T00280006
KASE 101453Z 02004KT 6SM -SN BR OVC010 02/00 A3003 RMK AO2 RAB20E26SNB26 SLP114 P0000 60000 T00220000 51004
KASE 101426Z 35003KT 6SM -SN OVC010 03/M01 A3003 RMK AO2 RAB20E26SNB26 P0000 T00281006
KASE 101409Z 01004KT 10SM BKN017 OVC027 03/M01 A3003 RMK AO2 T00331011
KASE 101400Z 34003KT 10SM SCT017 BKN027 OVC035 03/M01 A3003 RMK AO2 T00331011
KASE 101353Z 34003KT 10SM SCT017 BKN035 BKN075 03/M01 A3003 RMK AO2 SLP111 T00331011
KASE 101259Z 00000KT 10SM SCT024 BKN035 BKN075 01/M01 A3001 RMK AO2 T00111011
KASE 101253Z COR 00000KT 10SM SCT024 BKN035 BKN075 01/M02 A3001 RMK AO2 SLP109 T00111017
KASE 101250Z AUTO 00000KT 10SM SCT021 BKN026 OVC070 01/M02 A3001 RMK AO2
KASE 101237Z AUTO 00000KT 10SM BKN021 BKN075 BKN090 00/M02 A3001 RMK AO2 T00001022
KASE 101153Z AUTO 00000KT 10SM CLR 00/M02 A2999 RMK AO2 SLP103 60000 T00001022 10044 20000 56013
KASE 101053Z AUTO 00000KT 10SM SCT070 OVC085 02/M01 A3000 RMK AO2 SLP095 T00221006
KASE 100953Z AUTO 15004KT 10SM OVC090 03/M01 A3001 RMK AO2 RAB0857E10 SLP094 P0000 T00281006
KASE 100853Z AUTO 16011KT 10SM BKN043 OVC070 04/M01 A3003 RMK AO2 SLP096 T00441011 55009
KASE 100753Z AUTO 12007KT 10SM OVC095 04/M02 A3003 RMK AO2 SLP099 T00391017
KASE 100653Z AUTO 15008KT 10SM FEW060 OVC075 04/M02 A3005 RMK AO2 SLP101 T00441017 401171022
KASE 100553Z AUTO 11005KT 10SM OVC055 04/M02 A3007 RMK AO2 SLP108 T00441017 10078 20044 50013
KASE 100453Z AUTO 19010KT 10SM OVC050 05/M02 A3008 RMK AO2 SLP110 T00501022
KASE 100353Z AUTO 20014G24KT 10SM BKN050 OVC070 07/M05 A3005 RMK AO2 SLP105 T00671050
KASE 100253Z AUTO 00000KT 10SM BKN085 BKN110 06/M04 A3002 RMK AO2 SLP101 T00611044 55005
KASE 100153Z AUTO VRB04KT 10SM FEW070 BKN080 06/M04 A3002 RMK AO2 SLP110 T00611044
KASE 100053Z 18014KT 10SM FEW060 FEW100 SCT110 07/M04 A3004 RMK AO2 SLP124 T00721044
KASE 092353Z 24009KT 10SM BKN095 OVC110 08/M07 A3004 RMK AO2 SLP124 T00781067 10117 20078 53006
KASE 092253Z VRB04G16KT 10SM FEW075 BKN090 BKN110 09/M09 A3001 RMK AO2 SLP110 T00941089
KASE 092153Z 28011G20KT 10SM FEW090 10/M09 A3002 RMK AO2 SLP107 T01001089
KASE 092053Z VRB04G15KT 10SM CLR 11/M07 A3002 RMK AO2 SLP099 T01061072 53002
KASE 091953Z COR 220014 10SM OVC085 10/M09 A3001 RMK AO2 SLP100 T01001089
KASE 091853Z 36012G21KT 10SM FEW080 SCT095 11/M10 A3001 RMK AO2 SLP089 T01111100
KASE 091753Z 35008G15KT 10SM FEW100 11/M11 A3001 RMK AO2 SLP091 T01111106 10111 21017 58013
KASE 091653Z 05007KT 010V100 10SM CLR 10/M10 A3003 RMK AO2 SLP093 T01001100
KASE 091553Z 03006KT 10SM CLR 08/M12 A3005 RMK AO2 SLP104 T00781117
KASE 091453Z VRB03KT 10SM CLR 06/M07 A3006 RMK AO2 SLP114 T00611072 58002
KASE 091353Z 12005KT 10SM CLR 03/M06 A3008 RMK AO2 SLP123 T00281056
KASE 091253Z 17005KT 10SM CLR M01/M06 A3008 RMK AO2 SLP129 T10111061
KASE 091153Z AUTO 16003KT 10SM CLR M01/M06 A3006 RMK AO2 SLP111 70002 T10111061 10033 21022 53012
KASE 091053Z AUTO 21003KT 10SM CLR M02/M06 A3004 RMK AO2 SLP104 T10221056
KASE 090953Z AUTO 18003KT 10SM CLR 00/M05 A3003 RMK AO2 SLP095 T00001050